Terminal Aerodrome Forecast
Issued by NWS

Home | Current Version | Previous Version | Text Only | Print | Product List | Glossary On
Versions: 1 2 3 4 5 6 7 8 9 10 11 12 13 14 15 16 17 18 19 20
832
FTAK31 PAJN 241830 AAB
TAFAYA
TAF AMD
PAYA 241830Z 2419/2518 11006KT P6SM -SHRA BKN035 OVC050
      TEMPO 2419/2421 4SM RA BR BKN015 OVC030
     FM242100 08008KT P6SM -SHRA BKN035 OVC050
      AMD LTD TO CLD VIS AND WIND=

USA.gov is the U.S. government's official web portal to all federal, state and local government web resources and services.